Time,TemperatureF,DewpointF,PressureIn,WindDirection,WindDirectionDegrees,WindSpeedMPH,WindSpeedGustMPH,Humidity,HourlyPrecipIn,Conditions,Clouds,dailyrainin,SoftwareType,DateUTC
2013-09-05 00:04:00,62.1,52.9,29.99,WSW,258,1.2,1.2,72,0.00,SCT,FEW,0.00,WeatherDisplay:10.37,2013-09-04 23:04:00,
2013-09-05 00:09:00,62.1,52.9,29.99,WSW,258,1.2,1.2,72,0.00,SCT,FEW,0.00,WeatherDisplay:10.37,2013-09-04 23:09:00,
2013-09-05 00:14:00,62.1,54.0,29.99,WSW,258,6.9,6.9,75,0.00,SCT,FEW,0.00,WeatherDisplay:10.37,2013-09-04 23:14:00,
2013-09-05 00:19:00,62.2,54.2,29.97,WSW,258,4.6,4.6,75,0.00,SCT,FEW,0.00,WeatherDisplay:10.37,2013-09-04 23:19:00,
2013-09-05 00:24:00,62.4,54.4,29.97,SE,145,3.5,3.5,75,0.00,SCT,FEW,0.00,WeatherDisplay:10.37,2013-09-04 23:24:00,
2013-09-05 00:29:00,62.4,54.4,29.97,ESE,122,4.6,4.6,75,0.00,SCT,FEW,0.00,WeatherDisplay:10.37,2013-09-04 23:29:00,
2013-09-05 00:34:00,62.4,54.4,29.97,West,280,5.8,5.8,75,0.00,SCT,FEW,0.00,WeatherDisplay:10.37,2013-09-04 23:34:00,
2013-09-05 00:39:00,62.4,54.4,29.97,WSW,258,3.5,3.5,75,0.00,SCT,FEW,0.00,WeatherDisplay:10.37,2013-09-04 23:39:00,
2013-09-05 00:44:00,62.4,54.4,29.97,NW,325,2.3,2.5,75,0.00,SCT,FEW,0.00,WeatherDisplay:10.37,2013-09-04 23:44:00,
2013-09-05 17:43:00,63.0,45.1,30.00,NW,325,5.8,5.8,52,0.00,SCT,FEW,0.00,WeatherDisplay:10.37,2013-09-05 16:43:00,
2013-09-05 17:44:00,63.0,45.1,30.00,NW,325,5.8,5.8,52,0.00,SCT,FEW,0.00,WeatherDisplay:10.37,2013-09-05 16:44:00,
2013-09-05 17:49:00,63.5,46.1,29.97,WNW,302,5.8,5.8,53,0.00,SCT,FEW,0.00,WeatherDisplay:10.37,2013-09-05 16:49:00,
2013-09-05 17:54:00,63.1,45.7,29.97,WSW,258,5.8,5.8,53,0.00,SCT,FEW,0.00,WeatherDisplay:10.37,2013-09-05 16:54:00,
2013-09-05 17:59:00,63.0,45.6,29.97,West,280,6.9,6.9,53,0.00,SCT,FEW,0.00,WeatherDisplay:10.37,2013-09-05 16:59:00,
2013-09-05 18:04:00,62.8,45.4,29.97,SE,145,2.3,2.9,53,0.00,BKN,FEW,0.00,WeatherDisplay:10.37,2013-09-05 17:04:00,
2013-09-05 18:09:00,62.4,45.5,29.97,NW,325,3.5,3.5,54,0.00,BKN,FEW,0.00,WeatherDisplay:10.37,2013-09-05 17:09:00,
2013-09-05 18:14:00,62.2,44.9,29.97,West,280,4.6,4.6,53,0.00,BKN,FEW,0.00,WeatherDisplay:10.37,2013-09-05 17:14:00,
2013-09-05 18:19:00,62.1,45.2,29.96,NW,325,2.3,2.8,54,0.00,BKN,FEW,0.00,WeatherDisplay:10.37,2013-09-05 17:19:00,
2013-09-05 18:25:00,61.9,45.5,29.96,WSW,258,5.8,5.8,55,0.00,BKN,FEW,0.00,WeatherDisplay:10.37,2013-09-05 17:25:00,
2013-09-05 18:30:00,61.9,45.5,29.96,West,280,8.2,8.2,55,0.00,BKN,FEW,0.00,WeatherDisplay:10.37,2013-09-05 17:30:00,
2013-09-05 18:35:00,61.5,45.7,29.96,WSW,258,6.9,6.9,56,0.00,BKN,FEW,0.00,WeatherDisplay:10.37,2013-09-05 17:35:00,
2013-09-05 18:40:00,61.5,45.7,29.95,WSW,258,7.8,7.8,56,0.00,BKN,FEW,0.00,WeatherDisplay:10.37,2013-09-05 17:40:00,
2013-09-05 18:45:00,61.3,45.5,29.95,WSW,258,4.6,4.6,56,0.00,BKN,FEW,0.00,WeatherDisplay:10.37,2013-09-05 17:45:00,
2013-09-05 18:50:00,61.0,45.6,29.95,NW,325,5.8,5.8,57,0.00,BKN,FEW,0.00,WeatherDisplay:10.37,2013-09-05 17:50:00,
2013-09-05 18:55:00,61.2,46.3,29.95,WSW,258,4.6,4.6,58,0.00,BKN,FEW,0.00,WeatherDisplay:10.37,2013-09-05 17:55:00,
2013-09-05 19:00:00,61.0,46.1,29.95,West,280,3.6,3.6,58,0.00,BKN,FEW,0.00,WeatherDisplay:10.37,2013-09-05 18:00:00,
2013-09-05 19:05:00,60.8,46.4,29.95,WNW,302,3.6,3.6,59,0.00,BKN,FEW,0.00,WeatherDisplay:10.37,2013-09-05 18:05:00,
2013-09-05 19:10:00,60.8,46.4,29.95,WSW,258,2.3,2.9,59,0.00,BKN,FEW,0.00,WeatherDisplay:10.37,2013-09-05 18:10:00,
2013-09-05 19:15:00,60.6,46.2,29.95,West,280,4.6,4.6,59,0.00,BKN,FEW,0.00,WeatherDisplay:10.37,2013-09-05 18:15:00,
2013-09-05 19:20:00,60.6,46.2,29.95,WSW,258,4.0,4.0,59,0.00,BKN,FEW,0.00,WeatherDisplay:10.37,2013-09-05 18:20:00,
2013-09-05 19:25:00,60.4,46.0,29.95,NW,325,4.6,4.6,59,0.00,BKN,FEW,0.00,WeatherDisplay:10.37,2013-09-05 18:25:00,
2013-09-05 19:30:00,60.3,45.9,29.95,NW,325,4.6,4.6,59,0.00,BKN,FEW,0.00,WeatherDisplay:10.37,2013-09-05 18:30:00,
2013-09-05 19:35:00,60.1,45.7,29.95,WNW,302,5.8,5.8,59,0.00,BKN,FEW,0.00,WeatherDisplay:10.37,2013-09-05 18:35:00,
2013-09-05 19:40:00,59.9,45.5,29.95,NW,325,4.6,4.6,59,0.00,BKN,FEW,0.00,WeatherDisplay:10.37,2013-09-05 18:40:00,
2013-09-05 19:45:00,59.7,45.4,29.95,WSW,258,3.5,3.5,59,0.00,BKN,FEW,0.00,WeatherDisplay:10.37,2013-09-05 18:45:00,
2013-09-05 19:50:00,59.4,45.5,29.95,West,280,4.6,4.6,60,0.00,BKN,FEW,0.00,WeatherDisplay:10.37,2013-09-05 18:50:00,
2013-09-05 19:55:00,59.5,45.6,29.95,West,280,2.7,2.7,60,0.00,BKN,FEW,0.00,WeatherDisplay:10.37,2013-09-05 18:55:00,
2013-09-05 20:00:00,59.2,44.9,29.96,WSW,258,3.5,3.5,59,0.00,BKN,FEW,0.00,WeatherDisplay:10.37,2013-09-05 19:00:00,
2013-09-05 20:05:00,59.2,45.3,29.96,WNW,302,2.3,2.5,60,0.00,BKN,FEW,0.00,WeatherDisplay:10.37,2013-09-05 19:05:00,
2013-09-05 20:10:00,59.2,44.9,29.96,West,280,4.6,4.6,59,0.00,BKN,FEW,0.00,WeatherDisplay:10.37,2013-09-05 19:10:00,
2013-09-05 20:15:00,59.2,44.9,29.96,WNW,302,2.7,2.7,59,0.00,BKN,FEW,0.00,WeatherDisplay:10.37,2013-09-05 19:15:00,
2013-09-05 20:20:00,59.0,44.7,29.95,West,280,3.5,3.5,59,0.00,BKN,FEW,0.00,WeatherDisplay:10.37,2013-09-05 19:20:00,
2013-09-05 20:25:00,59.2,44.9,29.95,WNW,302,5.8,5.8,59,0.00,BKN,FEW,0.00,WeatherDisplay:10.37,2013-09-05 19:25:00,
2013-09-05 20:30:00,59.0,45.1,29.95,WNW,302,4.7,4.7,60,0.00,BKN,FEW,0.00,WeatherDisplay:10.37,2013-09-05 19:30:00,
2013-09-05 20:35:00,59.0,45.1,29.95,NW,325,3.5,3.5,60,0.00,BKN,FEW,0.00,WeatherDisplay:10.37,2013-09-05 19:35:00,
2013-09-05 20:40:00,58.8,45.8,29.95,NW,325,4.6,4.6,62,0.00,BKN,FEW,0.00,WeatherDisplay:10.37,2013-09-05 19:40:00,
2013-09-05 20:45:00,58.6,46.1,29.95,NW,325,6.6,6.6,63,0.00,BKN,FEW,0.00,WeatherDisplay:10.37,2013-09-05 19:45:00,
2013-09-05 20:50:00,58.6,46.1,29.95,NW,325,4.6,4.6,63,0.00,BKN,FEW,0.00,WeatherDisplay:10.37,2013-09-05 19:50:00,
2013-09-05 20:55:00,58.5,46.3,29.95,West,280,3.0,3.0,64,0.00,BKN,FEW,0.00,WeatherDisplay:10.37,2013-09-05 19:55:00,
2013-09-05 21:00:00,58.3,46.2,29.95,WNW,302,4.6,4.6,64,0.00,BKN,FEW,0.00,WeatherDisplay:10.37,2013-09-05 20:00:00,
2013-09-05 21:05:00,58.5,46.3,29.95,WNW,302,4.6,4.6,64,0.00,BKN,FEW,0.00,WeatherDisplay:10.37,2013-09-05 20:05:00,
2013-09-05 21:10:00,58.1,46.0,29.95,WNW,302,2.3,2.8,64,0.00,BKN,FEW,0.00,WeatherDisplay:10.37,2013-09-05 20:10:00,
2013-09-05 21:15:00,58.1,46.0,29.95,WSW,258,3.5,3.5,64,0.00,BKN,FEW,0.00,WeatherDisplay:10.37,2013-09-05 20:15:00,
2013-09-05 21:20:00,58.1,46.0,29.96,West,280,3.5,3.5,64,0.00,BKN,FEW,0.00,WeatherDisplay:10.37,2013-09-05 20:20:00,
2013-09-05 21:25:00,57.9,46.2,29.96,WNW,302,3.5,3.5,65,0.00,BKN,FEW,0.00,WeatherDisplay:10.37,2013-09-05 20:25:00,
2013-09-05 21:30:00,57.9,46.2,29.96,NW,325,4.6,4.6,65,0.00,BKN,FEW,0.00,WeatherDisplay:10.37,2013-09-05 20:30:00,
2013-09-05 21:35:00,57.7,46.0,29.96,NW,325,4.6,4.6,65,0.00,BKN,FEW,0.00,WeatherDisplay:10.37,2013-09-05 20:35:00,
2013-09-05 21:40:00,57.7,46.5,29.96,West,280,3.5,3.5,66,0.00,BKN,FEW,0.00,WeatherDisplay:10.37,2013-09-05 20:40:00,
2013-09-05 21:45:00,57.2,45.9,29.96,West,280,5.8,5.8,66,0.00,BKN,FEW,0.00,WeatherDisplay:10.37,2013-09-05 20:45:00,
2013-09-05 21:50:00,57.4,46.5,29.96,NW,325,5.8,5.8,67,0.00,BKN,FEW,0.00,WeatherDisplay:10.37,2013-09-05 20:50:00,
2013-09-05 21:55:00,57.0,46.2,29.96,West,280,6.9,6.9,67,0.00,BKN,FEW,0.00,WeatherDisplay:10.37,2013-09-05 20:55:00,
2013-09-05 22:00:00,56.8,46.0,29.95,NW,325,3.5,3.5,67,0.00,BKN,FEW,0.00,WeatherDisplay:10.37,2013-09-05 21:00:00,
2013-09-05 22:05:00,57.0,46.6,29.95,WSW,258,2.4,2.4,68,0.00,BKN,FEW,0.00,WeatherDisplay:10.37,2013-09-05 21:05:00,
2013-09-05 22:10:00,57.0,46.6,29.95,WSW,258,2.3,2.7,68,0.00,BKN,FEW,0.00,WeatherDisplay:10.37,2013-09-05 21:10:00,
2013-09-05 22:15:00,56.8,46.4,29.95,SE,145,3.5,3.5,68,0.00,BKN,FEW,0.00,WeatherDisplay:10.37,2013-09-05 21:15:00,
2013-09-05 22:20:00,56.7,46.2,29.95,WNW,302,5.8,5.8,68,0.00,BKN,FEW,0.00,WeatherDisplay:10.37,2013-09-05 21:20:00,
2013-09-05 22:25:00,56.7,46.2,29.95,NW,325,5.8,5.8,68,0.00,BKN,FEW,0.00,WeatherDisplay:10.37,2013-09-05 21:25:00,
2013-09-05 22:30:00,56.5,46.0,29.95,NW,325,6.9,6.9,68,0.00,BKN,FEW,0.00,WeatherDisplay:10.37,2013-09-05 21:30:00,
2013-09-05 22:35:00,56.5,46.4,29.95,WNW,302,4.6,4.6,69,0.00,BKN,FEW,0.00,WeatherDisplay:10.37,2013-09-05 21:35:00,
2013-09-05 22:40:00,56.3,46.3,29.95,NW,325,3.5,3.5,69,0.00,BKN,FEW,0.00,WeatherDisplay:10.37,2013-09-05 21:40:00,
2013-09-05 22:45:00,56.3,46.6,29.95,NW,325,2.3,2.8,70,0.00,BKN,FEW,0.00,WeatherDisplay:10.37,2013-09-05 21:45:00,
2013-09-05 22:50:00,56.1,46.5,29.95,WSW,258,2.4,2.7,70,0.00,BKN,FEW,0.00,WeatherDisplay:10.37,2013-09-05 21:50:00,
2013-09-05 22:55:00,56.3,46.3,29.95,West,280,3.5,3.5,69,0.00,BKN,FEW,0.00,WeatherDisplay:10.37,2013-09-05 21:55:00,
2013-09-05 23:00:00,55.9,45.9,29.94,WNW,302,2.3,2.3,69,0.00,BKN,FEW,0.00,WeatherDisplay:10.37,2013-09-05 22:00:00,
2013-09-05 23:05:00,55.9,45.9,29.94,WNW,302,2.3,2.3,69,0.00,BKN,FEW,0.00,WeatherDisplay:10.37,2013-09-05 22:05:00,
2013-09-05 23:10:00,55.9,45.9,29.94,West,280,5.8,5.8,69,0.00,BKN,FEW,0.00,WeatherDisplay:10.37,2013-09-05 22:10:00,
2013-09-05 23:15:00,55.8,45.7,29.94,NW,325,3.5,3.5,69,0.00,BKN,FEW,0.00,WeatherDisplay:10.37,2013-09-05 22:15:00,
2013-09-05 23:21:00,55.8,45.7,29.93,NW,325,4.6,4.6,69,0.00,BKN,FEW,0.00,WeatherDisplay:10.37,2013-09-05 22:21:00,
2013-09-05 23:26:00,55.6,45.9,29.93,WSW,258,0.0,2.1,70,0.00,BKN,FEW,0.00,WeatherDisplay:10.37,2013-09-05 22:26:00,
2013-09-05 23:31:00,55.4,45.8,29.93,West,280,4.6,4.6,70,0.00,BKN,FEW,0.00,WeatherDisplay:10.37,2013-09-05 22:31:00,
2013-09-05 23:36:00,55.6,45.9,29.93,WSW,258,4.6,4.6,70,0.00,BKN,FEW,0.00,WeatherDisplay:10.37,2013-09-05 22:36:00,
2013-09-05 23:41:00,55.2,45.6,29.93,NW,325,3.5,3.5,70,0.00,BKN,FEW,0.00,WeatherDisplay:10.37,2013-09-05 22:41:00,
2013-09-05 23:46:00,55.2,45.6,29.93,West,280,3.5,3.5,70,0.00,BKN,FEW,0.00,WeatherDisplay:10.37,2013-09-05 22:46:00,
2013-09-05 23:51:00,55.0,45.4,29.93,North,10,1.7,2.1,70,0.00,BKN,FEW,0.00,WeatherDisplay:10.37,2013-09-05 22:51:00,
2013-09-05 23:56:00,54.9,45.6,29.93,NW,325,2.3,2.3,71,0.00,BKN,FEW,0.00,WeatherDisplay:10.37,2013-09-05 22:56:00,